sensor_id;sensor_type;location;lat;lon;timestamp;temperature;humidity
22680;DHT22;11507;44.858;10.374;2022-10-16T00:00:18;17.80;99.90
22680;DHT22;11507;44.858;10.374;2022-10-16T00:02:43;17.80;99.90
22680;DHT22;11507;44.858;10.374;2022-10-16T00:05:11;17.80;99.90
22680;DHT22;11507;44.858;10.374;2022-10-16T00:07:36;17.80;99.90
22680;DHT22;11507;44.858;10.374;2022-10-16T00:10:02;17.70;99.90
22680;DHT22;11507;44.858;10.374;2022-10-16T00:12:30;17.70;99.90
22680;DHT22;11507;44.858;10.374;2022-10-16T00:14:55;17.70;99.90
22680;DHT22;11507;44.858;10.374;2022-10-16T00:17:21;17.70;99.90
22680;DHT22;11507;44.858;10.374;2022-10-16T00:19:47;17.70;99.90
22680;DHT22;11507;44.858;10.374;2022-10-16T00:22:13;17.70;99.90
22680;DHT22;11507;44.858;10.374;2022-10-16T00:24:39;17.70;99.90
22680;DHT22;11507;44.858;10.374;2022-10-16T00:27:05;17.70;99.90
22680;DHT22;11507;44.858;10.374;2022-10-16T00:29:31;17.60;99.90
22680;DHT22;11507;44.858;10.374;2022-10-16T00:31:56;17.70;99.90
22680;DHT22;11507;44.858;10.374;2022-10-16T00:34:22;17.70;99.90
22680;DHT22;11507;44.858;10.374;2022-10-16T00:36:48;17.60;99.90
22680;DHT22;11507;44.858;10.374;2022-10-16T00:39:14;17.60;99.90
22680;DHT22;11507;44.858;10.374;2022-10-16T00:41:40;17.70;99.90
22680;DHT22;11507;44.858;10.374;2022-10-16T00:47:17;17.70;99.90
22680;DHT22;11507;44.858;10.374;2022-10-16T00:49:46;17.60;99.90
22680;DHT22;11507;44.858;10.374;2022-10-16T00:52:13;17.60;99.90
22680;DHT22;11507;44.858;10.374;2022-10-16T00:54:40;17.70;99.90
22680;DHT22;11507;44.858;10.374;2022-10-16T00:57:08;17.60;99.90
22680;DHT22;11507;44.858;10.374;2022-10-16T00:59:37;17.60;99.90
22680;DHT22;11507;44.858;10.374;2022-10-16T01:02:05;17.60;99.90
22680;DHT22;11507;44.858;10.374;2022-10-16T01:04:52;17.60;99.90
22680;DHT22;11507;44.858;10.374;2022-10-16T01:13:01;17.60;99.90
22680;DHT22;11507;44.858;10.374;2022-10-16T01:18:14;17.50;99.90
22680;DHT22;11507;44.858;10.374;2022-10-16T01:20:53;17.50;99.90
22680;DHT22;11507;44.858;10.374;2022-10-16T01:31:47;17.50;99.90
22680;DHT22;11507;44.858;10.374;2022-10-16T01:34:33;17.50;99.90
22680;DHT22;11507;44.858;10.374;2022-10-16T01:37:09;17.50;99.90
22680;DHT22;11507;44.858;10.374;2022-10-16T01:39:39;17.50;99.90
22680;DHT22;11507;44.858;10.374;2022-10-16T01:42:14;17.50;99.90
22680;DHT22;11507;44.858;10.374;2022-10-16T01:44:43;17.50;99.90
22680;DHT22;11507;44.858;10.374;2022-10-16T01:47:13;17.50;99.90
22680;DHT22;11507;44.858;10.374;2022-10-16T01:49:41;17.50;99.90
22680;DHT22;11507;44.858;10.374;2022-10-16T01:52:14;17.50;99.90
22680;DHT22;11507;44.858;10.374;2022-10-16T01:54:43;17.50;99.90
22680;DHT22;11507;44.858;10.374;2022-10-16T01:57:13;17.50;99.90
22680;DHT22;11507;44.858;10.374;2022-10-16T01:59:48;17.50;99.90
22680;DHT22;11507;44.858;10.374;2022-10-16T02:02:17;17.50;99.90
22680;DHT22;11507;44.858;10.374;2022-10-16T02:04:47;17.50;99.90
22680;DHT22;11507;44.858;10.374;2022-10-16T02:07:14;17.40;99.90
22680;DHT22;11507;44.858;10.374;2022-10-16T02:09:40;17.40;99.90
22680;DHT22;11507;44.858;10.374;2022-10-16T02:12:19;17.40;99.90
22680;DHT22;11507;44.858;10.374;2022-10-16T02:14:47;17.50;99.90
22680;DHT22;11507;44.858;10.374;2022-10-16T02:17:15;17.40;99.90
22680;DHT22;11507;44.858;10.374;2022-10-16T02:19:43;17.40;99.90
22680;DHT22;11507;44.858;10.374;2022-10-16T02:22:16;17.40;99.90
22680;DHT22;11507;44.858;10.374;2022-10-16T02:27:25;17.40;99.90
22680;DHT22;11507;44.858;10.374;2022-10-16T02:29:58;17.40;99.90
22680;DHT22;11507;44.858;10.374;2022-10-16T02:32:30;17.30;99.90
22680;DHT22;11507;44.858;10.374;2022-10-16T02:34:57;17.30;99.90
22680;DHT22;11507;44.858;10.374;2022-10-16T02:37:25;17.30;99.90
22680;DHT22;11507;44.858;10.374;2022-10-16T02:39:51;17.20;99.90
22680;DHT22;11507;44.858;10.374;2022-10-16T02:42:18;17.20;99.90
22680;DHT22;11507;44.858;10.374;2022-10-16T02:44:44;17.30;99.90
22680;DHT22;11507;44.858;10.374;2022-10-16T02:47:10;17.20;99.90
22680;DHT22;11507;44.858;10.374;2022-10-16T02:49:36;17.20;99.90
22680;DHT22;11507;44.858;10.374;2022-10-16T02:52:02;17.30;99.90
22680;DHT22;11507;44.858;10.374;2022-10-16T02:54:28;17.20;99.90
22680;DHT22;11507;44.858;10.374;2022-10-16T02:56:54;17.20;99.90
22680;DHT22;11507;44.858;10.374;2022-10-16T02:59:19;17.20;99.90
22680;DHT22;11507;44.858;10.374;2022-10-16T03:01:46;17.20;99.90
22680;DHT22;11507;44.858;10.374;2022-10-16T03:04:12;17.20;99.90
22680;DHT22;11507;44.858;10.374;2022-10-16T03:06:37;17.10;99.90
22680;DHT22;11507;44.858;10.374;2022-10-16T03:09:04;17.10;99.90
22680;DHT22;11507;44.858;10.374;2022-10-16T03:11:30;17.10;99.90
22680;DHT22;11507;44.858;10.374;2022-10-16T03:13:57;17.10;99.90
22680;DHT22;11507;44.858;10.374;2022-10-16T03:16:23;17.10;99.90
22680;DHT22;11507;44.858;10.374;2022-10-16T03:18:49;17.10;99.90
22680;DHT22;11507;44.858;10.374;2022-10-16T03:21:16;17.10;99.90
22680;DHT22;11507;44.858;10.374;2022-10-16T03:23:42;17.00;99.90
22680;DHT22;11507;44.858;10.374;2022-10-16T03:26:09;17.00;99.90
22680;DHT22;11507;44.858;10.374;2022-10-16T03:28:35;17.00;99.90
22680;DHT22;11507;44.858;10.374;2022-10-16T03:31:00;17.00;99.90
22680;DHT22;11507;44.858;10.374;2022-10-16T03:33:26;17.00;99.90
22680;DHT22;11507;44.858;10.374;2022-10-16T03:35:53;17.00;99.90
22680;DHT22;11507;44.858;10.374;2022-10-16T03:38:21;17.00;99.90
22680;DHT22;11507;44.858;10.374;2022-10-16T03:40:47;17.00;99.90
22680;DHT22;11507;44.858;10.374;2022-10-16T03:43:13;17.00;99.90
22680;DHT22;11507;44.858;10.374;2022-10-16T03:45:39;17.00;99.90
22680;DHT22;11507;44.858;10.374;2022-10-16T03:48:05;17.00;99.90
22680;DHT22;11507;44.858;10.374;2022-10-16T03:50:31;17.00;99.90
22680;DHT22;11507;44.858;10.374;2022-10-16T03:52:57;16.90;99.90
22680;DHT22;11507;44.858;10.374;2022-10-16T03:55:23;17.00;99.90
22680;DHT22;11507;44.858;10.374;2022-10-16T03:57:49;16.90;99.90
22680;DHT22;11507;44.858;10.374;2022-10-16T04:00:14;16.90;99.90
22680;DHT22;11507;44.858;10.374;2022-10-16T04:02:40;16.90;99.90
22680;DHT22;11507;44.858;10.374;2022-10-16T04:05:07;16.90;99.90
22680;DHT22;11507;44.858;10.374;2022-10-16T04:07:34;16.90;99.90
22680;DHT22;11507;44.858;10.374;2022-10-16T04:09:59;16.90;99.90
22680;DHT22;11507;44.858;10.374;2022-10-16T04:12:26;16.80;99.90
22680;DHT22;11507;44.858;10.374;2022-10-16T04:14:54;16.80;99.90
22680;DHT22;11507;44.858;10.374;2022-10-16T04:17:19;16.80;99.90
22680;DHT22;11507;44.858;10.374;2022-10-16T04:19:46;16.90;99.90
22680;DHT22;11507;44.858;10.374;2022-10-16T04:22:12;16.80;99.90
22680;DHT22;11507;44.858;10.374;2022-10-16T04:24:38;16.80;99.90
22680;DHT22;11507;44.858;10.374;2022-10-16T04:27:03;16.80;99.90
22680;DHT22;11507;44.858;10.374;2022-10-16T04:29:29;16.80;99.90
22680;DHT22;11507;44.858;10.374;2022-10-16T04:31:55;16.80;99.90
22680;DHT22;11507;44.858;10.374;2022-10-16T04:34:21;16.80;99.90
22680;DHT22;11507;44.858;10.374;2022-10-16T04:36:48;16.70;99.90
22680;DHT22;11507;44.858;10.374;2022-10-16T04:39:16;16.80;99.90
22680;DHT22;11507;44.858;10.374;2022-10-16T04:41:42;16.70;99.90
22680;DHT22;11507;44.858;10.374;2022-10-16T04:44:08;16.70;99.90
22680;DHT22;11507;44.858;10.374;2022-10-16T04:46:34;16.70;99.90
22680;DHT22;11507;44.858;10.374;2022-10-16T04:49:00;16.60;99.90
22680;DHT22;11507;44.858;10.374;2022-10-16T04:51:26;16.60;99.90
22680;DHT22;11507;44.858;10.374;2022-10-16T04:53:53;16.60;99.90
22680;DHT22;11507;44.858;10.374;2022-10-16T04:56:20;16.50;99.90
22680;DHT22;11507;44.858;10.374;2022-10-16T04:58:47;16.50;99.90
22680;DHT22;11507;44.858;10.374;2022-10-16T05:01:13;16.50;99.90
22680;DHT22;11507;44.858;10.374;2022-10-16T05:03:39;16.40;99.90
22680;DHT22;11507;44.858;10.374;2022-10-16T05:06:06;16.40;99.90
22680;DHT22;11507;44.858;10.374;2022-10-16T05:08:32;16.40;99.90
22680;DHT22;11507;44.858;10.374;2022-10-16T05:10:59;16.40;99.90
22680;DHT22;11507;44.858;10.374;2022-10-16T05:13:25;16.40;99.90
22680;DHT22;11507;44.858;10.374;2022-10-16T05:15:52;16.30;99.90
22680;DHT22;11507;44.858;10.374;2022-10-16T05:18:19;16.30;99.90
22680;DHT22;11507;44.858;10.374;2022-10-16T05:20:46;16.30;99.90
22680;DHT22;11507;44.858;10.374;2022-10-16T05:23:12;16.30;99.90
22680;DHT22;11507;44.858;10.374;2022-10-16T05:25:38;16.30;99.90
22680;DHT22;11507;44.858;10.374;2022-10-16T05:28:04;16.30;99.90
22680;DHT22;11507;44.858;10.374;2022-10-16T05:30:30;16.30;99.90
22680;DHT22;11507;44.858;10.374;2022-10-16T05:32:56;16.20;99.90
22680;DHT22;11507;44.858;10.374;2022-10-16T05:35:22;16.30;99.90
22680;DHT22;11507;44.858;10.374;2022-10-16T05:37:49;16.20;99.90
22680;DHT22;11507;44.858;10.374;2022-10-16T05:40:15;16.20;99.90
22680;DHT22;11507;44.858;10.374;2022-10-16T05:42:42;16.20;99.90
22680;DHT22;11507;44.858;10.374;2022-10-16T05:45:09;16.20;99.90
22680;DHT22;11507;44.858;10.374;2022-10-16T05:47:36;16.20;99.90
22680;DHT22;11507;44.858;10.374;2022-10-16T05:50:02;16.20;99.90
22680;DHT22;11507;44.858;10.374;2022-10-16T05:52:29;16.20;99.90
22680;DHT22;11507;44.858;10.374;2022-10-16T05:54:55;16.20;99.90
22680;DHT22;11507;44.858;10.374;2022-10-16T05:57:21;16.20;99.90
22680;DHT22;11507;44.858;10.374;2022-10-16T05:59:47;16.10;99.90
22680;DHT22;11507;44.858;10.374;2022-10-16T06:02:13;16.20;99.90
22680;DHT22;11507;44.858;10.374;2022-10-16T06:04:39;16.20;99.90
22680;DHT22;11507;44.858;10.374;2022-10-16T06:07:05;16.20;99.90
22680;DHT22;11507;44.858;10.374;2022-10-16T06:09:31;16.20;99.90
22680;DHT22;11507;44.858;10.374;2022-10-16T06:11:56;16.20;99.90
22680;DHT22;11507;44.858;10.374;2022-10-16T06:14:22;16.20;99.90
22680;DHT22;11507;44.858;10.374;2022-10-16T06:16:48;16.30;99.90
22680;DHT22;11507;44.858;10.374;2022-10-16T06:19:14;16.30;99.90
22680;DHT22;11507;44.858;10.374;2022-10-16T06:21:41;16.30;99.90
22680;DHT22;11507;44.858;10.374;2022-10-16T06:24:08;16.40;99.90
22680;DHT22;11507;44.858;10.374;2022-10-16T06:26:34;16.50;99.90
22680;DHT22;11507;44.858;10.374;2022-10-16T06:29:01;16.50;99.90
22680;DHT22;11507;44.858;10.374;2022-10-16T06:31:27;16.60;99.90
22680;DHT22;11507;44.858;10.374;2022-10-16T06:33:56;16.60;99.90
22680;DHT22;11507;44.858;10.374;2022-10-16T06:36:23;16.70;99.90
22680;DHT22;11507;44.858;10.374;2022-10-16T06:38:49;16.70;99.90
22680;DHT22;11507;44.858;10.374;2022-10-16T06:41:18;16.80;99.90
22680;DHT22;11507;44.858;10.374;2022-10-16T06:43:46;16.90;99.90
22680;DHT22;11507;44.858;10.374;2022-10-16T06:46:16;16.90;99.90
22680;DHT22;11507;44.858;10.374;2022-10-16T06:48:42;17.00;99.90
22680;DHT22;11507;44.858;10.374;2022-10-16T06:51:16;17.10;99.90
22680;DHT22;11507;44.858;10.374;2022-10-16T06:53:50;17.20;99.90
22680;DHT22;11507;44.858;10.374;2022-10-16T06:56:20;17.20;99.90
22680;DHT22;11507;44.858;10.374;2022-10-16T06:58:47;17.30;99.90
22680;DHT22;11507;44.858;10.374;2022-10-16T07:01:15;17.40;99.90
22680;DHT22;11507;44.858;10.374;2022-10-16T07:03:42;17.40;99.90
22680;DHT22;11507;44.858;10.374;2022-10-16T07:06:10;17.50;99.90
22680;DHT22;11507;44.858;10.374;2022-10-16T07:08:38;17.50;99.90
22680;DHT22;11507;44.858;10.374;2022-10-16T07:11:07;17.60;99.90
22680;DHT22;11507;44.858;10.374;2022-10-16T07:13:34;17.60;99.90
22680;DHT22;11507;44.858;10.374;2022-10-16T07:18:32;17.70;99.90
22680;DHT22;11507;44.858;10.374;2022-10-16T07:21:12;17.70;99.90
22680;DHT22;11507;44.858;10.374;2022-10-16T07:23:38;17.80;99.90
22680;DHT22;11507;44.858;10.374;2022-10-16T07:26:04;17.90;99.90
22680;DHT22;11507;44.858;10.374;2022-10-16T07:28:33;18.00;99.90
22680;DHT22;11507;44.858;10.374;2022-10-16T07:31:03;18.10;99.90
22680;DHT22;11507;44.858;10.374;2022-10-16T07:33:30;18.20;99.90
22680;DHT22;11507;44.858;10.374;2022-10-16T07:35:56;18.40;99.90
22680;DHT22;11507;44.858;10.374;2022-10-16T07:38:22;18.50;99.90
22680;DHT22;11507;44.858;10.374;2022-10-16T07:40:55;18.60;99.90
22680;DHT22;11507;44.858;10.374;2022-10-16T07:43:21;18.70;99.90
22680;DHT22;11507;44.858;10.374;2022-10-16T07:45:48;18.70;99.90
22680;DHT22;11507;44.858;10.374;2022-10-16T07:48:16;18.70;99.90
22680;DHT22;11507;44.858;10.374;2022-10-16T07:50:43;18.90;99.90
22680;DHT22;11507;44.858;10.374;2022-10-16T07:53:11;19.10;99.90
22680;DHT22;11507;44.858;10.374;2022-10-16T07:55:37;19.10;99.90
22680;DHT22;11507;44.858;10.374;2022-10-16T07:58:04;19.20;99.90
22680;DHT22;11507;44.858;10.374;2022-10-16T08:00:30;19.40;99.90
22680;DHT22;11507;44.858;10.374;2022-10-16T08:02:57;19.50;99.90
22680;DHT22;11507;44.858;10.374;2022-10-16T08:05:27;19.60;99.90
22680;DHT22;11507;44.858;10.374;2022-10-16T08:07:53;19.70;99.90
22680;DHT22;11507;44.858;10.374;2022-10-16T08:10:20;19.90;99.90
22680;DHT22;11507;44.858;10.374;2022-10-16T08:12:46;20.00;99.90
22680;DHT22;11507;44.858;10.374;2022-10-16T08:15:12;20.10;99.90
22680;DHT22;11507;44.858;10.374;2022-10-16T08:17:38;20.20;99.90
22680;DHT22;11507;44.858;10.374;2022-10-16T08:20:06;20.40;99.90
22680;DHT22;11507;44.858;10.374;2022-10-16T08:22:33;20.50;99.90
22680;DHT22;11507;44.858;10.374;2022-10-16T08:24:58;20.60;99.90
22680;DHT22;11507;44.858;10.374;2022-10-16T08:27:24;20.70;99.90
22680;DHT22;11507;44.858;10.374;2022-10-16T08:29:50;20.70;99.90
22680;DHT22;11507;44.858;10.374;2022-10-16T08:32:16;20.90;99.90
22680;DHT22;11507;44.858;10.374;2022-10-16T08:34:42;21.10;99.90
22680;DHT22;11507;44.858;10.374;2022-10-16T08:37:08;21.20;99.90
22680;DHT22;11507;44.858;10.374;2022-10-16T08:39:37;21.40;99.90
22680;DHT22;11507;44.858;10.374;2022-10-16T08:42:30;21.60;99.90
22680;DHT22;11507;44.858;10.374;2022-10-16T08:50:13;22.50;99.90
22680;DHT22;11507;44.858;10.374;2022-10-16T08:52:43;23.00;99.90
22680;DHT22;11507;44.858;10.374;2022-10-16T08:55:38;23.40;99.90
22680;DHT22;11507;44.858;10.374;2022-10-16T08:58:16;24.30;99.90
22680;DHT22;11507;44.858;10.374;2022-10-16T09:00:44;25.10;99.90
22680;DHT22;11507;44.858;10.374;2022-10-16T09:10:16;27.60;99.90
22680;DHT22;11507;44.858;10.374;2022-10-16T09:12:44;27.50;99.90
22680;DHT22;11507;44.858;10.374;2022-10-16T09:15:31;27.40;99.90
22680;DHT22;11507;44.858;10.374;2022-10-16T09:20:53;28.00;98.70
22680;DHT22;11507;44.858;10.374;2022-10-16T09:23:29;28.30;98.70
22680;DHT22;11507;44.858;10.374;2022-10-16T09:25:58;28.50;97.70
22680;DHT22;11507;44.858;10.374;2022-10-16T09:28:24;28.20;98.30
22680;DHT22;11507;44.858;10.374;2022-10-16T09:30:50;27.80;97.60
22680;DHT22;11507;44.858;10.374;2022-10-16T09:33:19;27.40;97.60
22680;DHT22;11507;44.858;10.374;2022-10-16T09:35:48;27.30;98.90
22680;DHT22;11507;44.858;10.374;2022-10-16T09:38:26;27.20;99.00
22680;DHT22;11507;44.858;10.374;2022-10-16T09:40:52;27.20;99.20
22680;DHT22;11507;44.858;10.374;2022-10-16T09:46:01;27.30;99.40
22680;DHT22;11507;44.858;10.374;2022-10-16T09:48:38;27.70;99.90
22680;DHT22;11507;44.858;10.374;2022-10-16T09:51:13;28.00;99.00
22680;DHT22;11507;44.858;10.374;2022-10-16T09:53:44;28.40;98.30
22680;DHT22;11507;44.858;10.374;2022-10-16T09:56:42;28.80;97.30
22680;DHT22;11507;44.858;10.374;2022-10-16T10:01:51;29.60;95.70
22680;DHT22;11507;44.858;10.374;2022-10-16T10:04:50;29.90;94.00
22680;DHT22;11507;44.858;10.374;2022-10-16T10:07:38;30.00;93.30
22680;DHT22;11507;44.858;10.374;2022-10-16T10:10:20;30.10;92.70
22680;DHT22;11507;44.858;10.374;2022-10-16T10:12:47;30.30;94.20
22680;DHT22;11507;44.858;10.374;2022-10-16T10:15:14;30.70;93.10
22680;DHT22;11507;44.858;10.374;2022-10-16T10:17:57;30.80;91.50
22680;DHT22;11507;44.858;10.374;2022-10-16T10:20:31;30.80;90.80
22680;DHT22;11507;44.858;10.374;2022-10-16T10:23:13;31.20;90.10
22680;DHT22;11507;44.858;10.374;2022-10-16T10:39:15;31.10;90.60
22680;DHT22;11507;44.858;10.374;2022-10-16T10:41:56;31.10;90.30
22680;DHT22;11507;44.858;10.374;2022-10-16T10:44:55;31.30;90.30
22680;DHT22;11507;44.858;10.374;2022-10-16T10:50:07;32.00;90.00
22680;DHT22;11507;44.858;10.374;2022-10-16T10:52:49;32.40;87.80
22680;DHT22;11507;44.858;10.374;2022-10-16T10:55:39;32.70;85.30
22680;DHT22;11507;44.858;10.374;2022-10-16T11:07:04;32.80;78.20
22680;DHT22;11507;44.858;10.374;2022-10-16T11:09:41;33.30;80.10
22680;DHT22;11507;44.858;10.374;2022-10-16T11:12:20;33.90;78.50
22680;DHT22;11507;44.858;10.374;2022-10-16T11:14:58;34.40;75.30
22680;DHT22;11507;44.858;10.374;2022-10-16T11:17:33;34.80;74.00
22680;DHT22;11507;44.858;10.374;2022-10-16T11:20:11;34.80;72.80
22680;DHT22;11507;44.858;10.374;2022-10-16T11:25:32;35.00;71.00
22680;DHT22;11507;44.858;10.374;2022-10-16T11:30:29;33.90;73.30
22680;DHT22;11507;44.858;10.374;2022-10-16T11:33:23;34.00;74.60
22680;DHT22;11507;44.858;10.374;2022-10-16T11:38:59;34.30;70.40
22680;DHT22;11507;44.858;10.374;2022-10-16T11:41:44;34.40;70.40
22680;DHT22;11507;44.858;10.374;2022-10-16T11:47:19;33.60;70.30
22680;DHT22;11507;44.858;10.374;2022-10-16T11:49:53;33.50;73.00
22680;DHT22;11507;44.858;10.374;2022-10-16T11:55:37;33.70;68.60
22680;DHT22;11507;44.858;10.374;2022-10-16T11:58:31;33.50;67.50
22680;DHT22;11507;44.858;10.374;2022-10-16T12:04:00;33.90;73.20
22680;DHT22;11507;44.858;10.374;2022-10-16T12:06:40;34.70;72.90
22680;DHT22;11507;44.858;10.374;2022-10-16T12:09:22;35.70;68.70
22680;DHT22;11507;44.858;10.374;2022-10-16T12:11:50;36.60;62.30
22680;DHT22;11507;44.858;10.374;2022-10-16T12:16:58;37.50;60.30
22680;DHT22;11507;44.858;10.374;2022-10-16T12:19:29;37.80;58.60
22680;DHT22;11507;44.858;10.374;2022-10-16T12:21:58;37.50;58.10
22680;DHT22;11507;44.858;10.374;2022-10-16T12:24:42;37.50;60.70
22680;DHT22;11507;44.858;10.374;2022-10-16T12:29:57;36.30;59.20
22680;DHT22;11507;44.858;10.374;2022-10-16T12:35:02;36.00;59.40
22680;DHT22;11507;44.858;10.374;2022-10-16T12:37:36;35.70;58.40
22680;DHT22;11507;44.858;10.374;2022-10-16T12:40:15;35.00;60.80
22680;DHT22;11507;44.858;10.374;2022-10-16T12:42:42;34.70;60.60
22680;DHT22;11507;44.858;10.374;2022-10-16T12:45:30;33.90;62.10
22680;DHT22;11507;44.858;10.374;2022-10-16T12:47:58;33.00;62.10
22680;DHT22;11507;44.858;10.374;2022-10-16T12:50:31;32.50;64.30
22680;DHT22;11507;44.858;10.374;2022-10-16T12:52:59;31.90;65.70
22680;DHT22;11507;44.858;10.374;2022-10-16T12:55:27;31.50;67.90
22680;DHT22;11507;44.858;10.374;2022-10-16T12:58:14;31.20;68.90
22680;DHT22;11507;44.858;10.374;2022-10-16T13:00:56;30.80;68.40
22680;DHT22;11507;44.858;10.374;2022-10-16T13:03:47;30.60;69.60
22680;DHT22;11507;44.858;10.374;2022-10-16T13:17:42;29.70;75.30
22680;DHT22;11507;44.858;10.374;2022-10-16T13:20:21;29.40;75.50
22680;DHT22;11507;44.858;10.374;2022-10-16T13:23:15;29.30;75.40
22680;DHT22;11507;44.858;10.374;2022-10-16T13:25:50;29.30;73.10
22680;DHT22;11507;44.858;10.374;2022-10-16T13:28:26;29.60;73.70
22680;DHT22;11507;44.858;10.374;2022-10-16T13:30:54;29.70;74.40
22680;DHT22;11507;44.858;10.374;2022-10-16T13:33:41;29.90;76.80
22680;DHT22;11507;44.858;10.374;2022-10-16T13:36:22;30.00;77.50
22680;DHT22;11507;44.858;10.374;2022-10-16T13:39:13;30.10;76.10
22680;DHT22;11507;44.858;10.374;2022-10-16T13:41:40;30.20;77.60
22680;DHT22;11507;44.858;10.374;2022-10-16T13:44:18;30.30;76.90
22680;DHT22;11507;44.858;10.374;2022-10-16T13:46:45;30.90;75.70
22680;DHT22;11507;44.858;10.374;2022-10-16T13:49:16;31.50;74.80
22680;DHT22;11507;44.858;10.374;2022-10-16T13:52:03;32.40;74.00
22680;DHT22;11507;44.858;10.374;2022-10-16T13:54:31;33.00;65.70
22680;DHT22;11507;44.858;10.374;2022-10-16T13:57:05;33.30;65.50
22680;DHT22;11507;44.858;10.374;2022-10-16T13:59:35;33.10;66.30
22680;DHT22;11507;44.858;10.374;2022-10-16T14:02:14;32.80;65.70
22680;DHT22;11507;44.858;10.374;2022-10-16T14:04:41;32.50;68.50
22680;DHT22;11507;44.858;10.374;2022-10-16T14:07:14;32.30;70.20
22680;DHT22;11507;44.858;10.374;2022-10-16T14:09:40;32.10;69.80
22680;DHT22;11507;44.858;10.374;2022-10-16T14:12:11;31.60;69.80
22680;DHT22;11507;44.858;10.374;2022-10-16T14:14:46;31.30;71.80
22680;DHT22;11507;44.858;10.374;2022-10-16T14:17:18;30.90;72.80
22680;DHT22;11507;44.858;10.374;2022-10-16T14:19:50;30.50;74.50
22680;DHT22;11507;44.858;10.374;2022-10-16T14:22:42;30.20;76.70
22680;DHT22;11507;44.858;10.374;2022-10-16T14:25:25;30.00;75.80
22680;DHT22;11507;44.858;10.374;2022-10-16T14:30:29;29.40;79.60
22680;DHT22;11507;44.858;10.374;2022-10-16T14:35:32;29.00;80.90
22680;DHT22;11507;44.858;10.374;2022-10-16T14:37:59;28.80;82.20
22680;DHT22;11507;44.858;10.374;2022-10-16T14:40:29;28.60;83.70
22680;DHT22;11507;44.858;10.374;2022-10-16T14:42:56;28.40;85.30
22680;DHT22;11507;44.858;10.374;2022-10-16T14:45:25;28.30;85.00
22680;DHT22;11507;44.858;10.374;2022-10-16T14:47:58;28.20;84.70
22680;DHT22;11507;44.858;10.374;2022-10-16T14:50:27;28.10;85.90
22680;DHT22;11507;44.858;10.374;2022-10-16T14:52:53;27.90;84.50
22680;DHT22;11507;44.858;10.374;2022-10-16T14:55:19;27.80;86.40
22680;DHT22;11507;44.858;10.374;2022-10-16T14:57:45;27.70;87.60
22680;DHT22;11507;44.858;10.374;2022-10-16T15:00:18;27.50;86.50
22680;DHT22;11507;44.858;10.374;2022-10-16T15:02:45;27.00;87.10
22680;DHT22;11507;44.858;10.374;2022-10-16T15:05:22;26.80;84.80
22680;DHT22;11507;44.858;10.374;2022-10-16T15:07:50;26.60;85.80
22680;DHT22;11507;44.858;10.374;2022-10-16T15:10:18;26.40;84.60
22680;DHT22;11507;44.858;10.374;2022-10-16T15:12:44;26.30;85.10
22680;DHT22;11507;44.858;10.374;2022-10-16T15:15:21;26.20;85.00
22680;DHT22;11507;44.858;10.374;2022-10-16T15:17:55;26.10;86.80
22680;DHT22;11507;44.858;10.374;2022-10-16T15:20:29;26.00;85.90
22680;DHT22;11507;44.858;10.374;2022-10-16T15:22:57;25.90;85.40
22680;DHT22;11507;44.858;10.374;2022-10-16T15:27:52;25.60;86.90
22680;DHT22;11507;44.858;10.374;2022-10-16T15:30:18;25.60;88.60
22680;DHT22;11507;44.858;10.374;2022-10-16T15:32:43;25.50;88.70
22680;DHT22;11507;44.858;10.374;2022-10-16T15:35:09;25.40;88.40
22680;DHT22;11507;44.858;10.374;2022-10-16T15:37:36;25.30;89.20
22680;DHT22;11507;44.858;10.374;2022-10-16T15:40:02;25.20;88.00
22680;DHT22;11507;44.858;10.374;2022-10-16T15:42:28;25.10;88.80
22680;DHT22;11507;44.858;10.374;2022-10-16T15:44:54;25.00;90.40
22680;DHT22;11507;44.858;10.374;2022-10-16T15:47:20;24.80;90.40
22680;DHT22;11507;44.858;10.374;2022-10-16T15:49:46;24.70;90.70
22680;DHT22;11507;44.858;10.374;2022-10-16T15:52:11;24.60;90.80
22680;DHT22;11507;44.858;10.374;2022-10-16T15:54:37;24.50;91.20
22680;DHT22;11507;44.858;10.374;2022-10-16T15:57:03;24.30;91.90
22680;DHT22;11507;44.858;10.374;2022-10-16T15:59:29;24.20;92.60
22680;DHT22;11507;44.858;10.374;2022-10-16T16:01:55;24.10;94.00
22680;DHT22;11507;44.858;10.374;2022-10-16T16:04:21;23.90;94.90
22680;DHT22;11507;44.858;10.374;2022-10-16T16:06:47;23.80;95.80
22680;DHT22;11507;44.858;10.374;2022-10-16T16:09:14;23.70;96.40
22680;DHT22;11507;44.858;10.374;2022-10-16T16:11:40;23.50;97.20
22680;DHT22;11507;44.858;10.374;2022-10-16T16:14:06;23.40;98.70
22680;DHT22;11507;44.858;10.374;2022-10-16T16:16:32;23.20;99.90
22680;DHT22;11507;44.858;10.374;2022-10-16T16:19:04;23.10;99.90
22680;DHT22;11507;44.858;10.374;2022-10-16T16:21:32;22.90;99.90
22680;DHT22;11507;44.858;10.374;2022-10-16T16:23:58;22.80;99.90
22680;DHT22;11507;44.858;10.374;2022-10-16T16:26:28;22.60;99.90
22680;DHT22;11507;44.858;10.374;2022-10-16T16:29:02;22.50;99.90
22680;DHT22;11507;44.858;10.374;2022-10-16T16:31:30;22.30;99.90
22680;DHT22;11507;44.858;10.374;2022-10-16T16:33:56;22.10;99.90
22680;DHT22;11507;44.858;10.374;2022-10-16T16:36:23;22.00;99.90
22680;DHT22;11507;44.858;10.374;2022-10-16T16:38:50;21.70;99.90
22680;DHT22;11507;44.858;10.374;2022-10-16T16:41:18;21.60;99.90
22680;DHT22;11507;44.858;10.374;2022-10-16T16:43:46;21.40;99.90
22680;DHT22;11507;44.858;10.374;2022-10-16T16:46:14;21.30;99.90
22680;DHT22;11507;44.858;10.374;2022-10-16T16:48:41;21.10;99.90
22680;DHT22;11507;44.858;10.374;2022-10-16T16:51:10;21.00;99.90
22680;DHT22;11507;44.858;10.374;2022-10-16T16:53:45;20.80;99.90
22680;DHT22;11507;44.858;10.374;2022-10-16T16:56:11;20.70;99.90
22680;DHT22;11507;44.858;10.374;2022-10-16T16:58:37;20.60;99.90
22680;DHT22;11507;44.858;10.374;2022-10-16T17:01:03;20.50;99.90
22680;DHT22;11507;44.858;10.374;2022-10-16T17:03:34;20.30;99.90
22680;DHT22;11507;44.858;10.374;2022-10-16T17:06:07;20.30;99.90
22680;DHT22;11507;44.858;10.374;2022-10-16T17:08:35;20.20;99.90
22680;DHT22;11507;44.858;10.374;2022-10-16T17:11:01;20.10;99.90
22680;DHT22;11507;44.858;10.374;2022-10-16T17:13:29;19.90;99.90
22680;DHT22;11507;44.858;10.374;2022-10-16T17:15:56;19.80;99.90
22680;DHT22;11507;44.858;10.374;2022-10-16T17:18:23;19.70;99.90
22680;DHT22;11507;44.858;10.374;2022-10-16T17:20:50;19.60;99.90
22680;DHT22;11507;44.858;10.374;2022-10-16T17:23:17;19.60;99.90
22680;DHT22;11507;44.858;10.374;2022-10-16T17:25:44;19.50;99.90